Time;durP1;ratioP1;P1;durP2;ratioP2;P2;SDS_P1;SDS_P2;PMS_P1;PMS_P2;Temp;Humidity;BMP_temperature;BMP_pressure;BME280_temperature;BME280_humidity;BME280_pressure;Samples;Min_cycle;Max_cycle;Signal;HPM_P1;HPM_P2
2022/04/10 00:01:49;;;;;;;;;;;;;;;;;;5113796;28;19915;-81
2022/04/10 00:04:15;;;;;;;;;;;;;;;;;;5118475;28;19916;-83
2022/04/10 00:06:40;;;;;;;;;;;;;;;;;;5119582;28;19962;-81
2022/04/10 00:09:05;;;;;;;;;;;;;;;;;;5119092;28;20432;-81
2022/04/10 00:11:31;;;;;;;;;;;;;;;;;;5079126;28;20389;-81
2022/04/10 00:13:56;;;;;;;;;;;;;;;;;;5094047;28;19956;-81
2022/04/10 00:16:22;;;;;;;;;;;;;;;;;;5077728;28;19969;-81
2022/04/10 00:18:47;;;;;;;;;;;;;;;;;;5077280;28;20066;-81
2022/04/10 00:21:13;;;;;;;;;;;;;;;;;;5076260;28;19916;-81
2022/04/10 00:23:38;;;;;;;;;;;;;;;;;;5077756;28;19939;-81
2022/04/10 00:26:03;;;;;;;;;;;;;;;;;;5077889;28;19962;-81
2022/04/10 00:28:29;;;;;;;;;;;;;;;;;;5078878;28;19917;-81
2022/04/10 00:30:54;;;;;;;;;;;;;;;;;;5079192;28;19921;-81
2022/04/10 00:33:19;;;;;;;;;;;;;;;;;;5079492;28;20015;-81
2022/04/10 00:35:45;;;;;;;;;;;;;;;;;;5085970;28;20023;-83
2022/04/10 00:38:11;;;;;;;;;;;;;;;;;;5086548;28;19991;-83
2022/04/10 00:40:36;;;;;;;;;;;;;;;;;;5084315;28;19946;-81
2022/04/10 00:43:02;;;;;;;;;;;;;;;;;;5079999;28;19956;-82
2022/04/10 00:45:27;;;;;;;;;;;;;;;;;;5079850;28;19917;-81
2022/04/10 00:47:52;;;;;;;;;;;;;;;;;;5078050;28;19916;-81
2022/04/10 00:50:19;;;;;;;;;;;;;;;;;;5077464;28;19960;-82
2022/04/10 00:52:47;;;;;;;;;;;;;;;;;;5079947;28;19920;-84
2022/04/10 00:55:12;;;;;;;;;;;;;;;;;;5084131;28;20051;-84
2022/04/10 00:57:38;;;;;;;;;;;;;;;;;;5085350;28;19951;-84
2022/04/10 01:00:10;;;;;;;;;;;;;;;;;;5092162;28;19967;-83
2022/04/10 01:02:36;;;;;;;;;;;;;;;;;;5104493;28;19916;-83
2022/04/10 01:05:02;;;;;;;;;;;;;;;;;;5103179;28;19923;-84
2022/04/10 01:07:28;;;;;;;;;;;;;;;;;;5102680;28;19916;-82
2022/04/10 01:09:54;;;;;;;;;;;;;;;;;;5102972;28;19920;-83
2022/04/10 01:12:20;;;;;;;;;;;;;;;;;;5100050;28;19916;-82
2022/04/10 01:14:50;;;;;;;;;;;;;;;;;;5099701;28;20376;-83
2022/04/10 01:17:18;;;;;;;;;;;;;;;;;;5119960;28;19951;-82
2022/04/10 01:19:46;;;;;;;;;;;;;;;;;;5119692;28;20558;-82
2022/04/10 01:22:26;;;;;;;;;;;;;;;;;;5119425;28;20009;-82
2022/04/10 01:24:53;;;;;;;;;;;;;;;;;;5118995;28;19922;-82
2022/04/10 01:27:19;;;;;;;;;;;;;;;;;;5108721;28;19916;-82
2022/04/10 01:29:45;;;;;;;;;;;;;;;;;;5098221;28;20375;-82
2022/04/10 01:32:10;;;;;;;;;;;;;;;;;;5098153;28;19923;-82
2022/04/10 01:34:37;;;;;;;;;;;;;;;;;;5097666;28;19963;-82
2022/04/10 01:37:03;;;;;;;;;;;;;;;;;;5080536;28;19978;-82
2022/04/10 01:39:29;;;;;;;;;;;;;;;;;;5096637;28;19951;-82
2022/04/10 01:41:54;;;;;;;;;;;;;;;;;;5099871;28;19923;-83
2022/04/10 01:44:20;;;;;;;;;;;;;;;;;;5101702;28;19952;-83
2022/04/10 01:46:46;;;;;;;;;;;;;;;;;;5101380;28;20388;-83
2022/04/10 01:49:11;;;;;;;;;;;;;;;;;;5101788;28;19916;-83
2022/04/10 01:51:37;;;;;;;;;;;;;;;;;;5102303;28;19969;-83
2022/04/10 01:54:02;;;;;;;;;;;;;;;;;;5082916;28;20017;-83
2022/04/10 01:56:28;;;;;;;;;;;;;;;;;;5082259;28;19935;-83
2022/04/10 01:58:53;;;;;;;;;;;;;;;;;;5081306;28;19916;-83
2022/04/10 02:01:20;;;;;;;;;;;;;;;;;;5082446;28;19939;-82
2022/04/10 02:03:46;;;;;;;;;;;;;;;;;;5080207;28;19920;-82
2022/04/10 02:06:14;;;;;;;;;;;;;;;;;;5079375;28;21415;-83
2022/04/10 02:08:42;;;;;;;;;;;;;;;;;;5078535;28;19988;-82
2022/04/10 02:11:11;;;;;;;;;;;;;;;;;;5079631;28;19920;-82
2022/04/10 02:13:38;;;;;;;;;;;;;;;;;;5078689;28;20366;-82
2022/04/10 02:16:08;;;;;;;;;;;;;;;;;;5086120;28;19921;-83
2022/04/10 02:18:34;;;;;;;;;;;;;;;;;;5096085;28;19916;-83
2022/04/10 02:20:59;;;;;;;;;;;;;;;;;;5080530;28;19916;-84
2022/04/10 02:23:24;;;;;;;;;;;;;;;;;;5078432;28;19923;-82
2022/04/10 02:25:50;;;;;;;;;;;;;;;;;;5083832;28;20019;-83
2022/04/10 02:28:15;;;;;;;;;;;;;;;;;;5081679;28;19920;-83
2022/04/10 02:30:40;;;;;;;;;;;;;;;;;;5081546;28;19954;-83
2022/04/10 02:33:06;;;;;;;;;;;;;;;;;;5079825;28;19986;-83
2022/04/10 02:35:32;;;;;;;;;;;;;;;;;;5083712;28;20009;-82
2022/04/10 02:37:57;;;;;;;;;;;;;;;;;;5080141;28;19944;-83
2022/04/10 02:40:22;;;;;;;;;;;;;;;;;;5081722;28;19917;-83
2022/04/10 02:42:49;;;;;;;;;;;;;;;;;;5062748;28;20008;-83
2022/04/10 02:45:16;;;;;;;;;;;;;;;;;;5108283;27;19919;-82
2022/04/10 02:47:42;;;;;;;;;;;;;;;;;;5119213;28;19922;-82
2022/04/10 02:50:08;;;;;;;;;;;;;;;;;;5101632;28;19927;-82
2022/04/10 02:52:33;;;;;;;;;;;;;;;;;;5119678;28;19915;-83
2022/04/10 02:54:58;;;;;;;;;;;;;;;;;;5117595;28;19915;-83
2022/04/10 02:57:24;;;;;;;;;;;;;;;;;;5119351;28;19922;-83
2022/04/10 02:59:49;;;;;;;;;;;;;;;;;;5117789;28;20275;-83
2022/04/10 03:02:14;;;;;;;;;;;;;;;;;;5117159;28;19916;-82
2022/04/10 03:04:40;;;;;;;;;;;;;;;;;;5116916;28;19983;-83
2022/04/10 03:07:05;;;;;;;;;;;;;;;;;;5116870;28;19920;-83
2022/04/10 03:09:30;;;;;;;;;;;;;;;;;;5117475;28;19919;-82
2022/04/10 03:11:56;;;;;;;;;;;;;;;;;;5118775;28;20311;-82
2022/04/10 03:14:22;;;;;;;;;;;;;;;;;;5105381;28;19972;-82
2022/04/10 03:16:47;;;;;;;;;;;;;;;;;;5096684;28;19923;-82
2022/04/10 03:19:13;;;;;;;;;;;;;;;;;;5096149;28;19916;-82
2022/04/10 03:21:38;;;;;;;;;;;;;;;;;;5095963;28;19916;-83
2022/04/10 03:24:04;;;;;;;;;;;;;;;;;;5079339;28;19923;-82
2022/04/10 03:26:30;;;;;;;;;;;;;;;;;;5096076;28;19922;-83
2022/04/10 03:28:56;;;;;;;;;;;;;;;;;;5095891;28;20401;-82
2022/04/10 03:31:22;;;;;;;;;;;;;;;;;;5095259;28;19920;-83
2022/04/10 03:33:50;;;;;;;;;;;;;;;;;;5095297;28;19916;-83
2022/04/10 03:36:15;;;;;;;;;;;;;;;;;;5099346;28;20129;-84
2022/04/10 03:38:41;;;;;;;;;;;;;;;;;;5100724;28;20427;-83
2022/04/10 03:41:07;;;;;;;;;;;;;;;;;;5096774;28;19917;-83
2022/04/10 03:43:32;;;;;;;;;;;;;;;;;;5079927;28;20016;-83
2022/04/10 03:46:01;;;;;;;;;;;;;;;;;;5080661;28;19949;-83
2022/04/10 03:48:27;;;;;;;;;;;;;;;;;;5078880;28;19921;-84
2022/04/10 03:50:53;;;;;;;;;;;;;;;;;;5079310;28;19920;-83
2022/04/10 03:53:18;;;;;;;;;;;;;;;;;;5061979;28;19975;-83
2022/04/10 03:55:44;;;;;;;;;;;;;;;;;;5089346;28;19920;-84
2022/04/10 03:58:10;;;;;;;;;;;;;;;;;;5101249;28;20358;-84
2022/04/10 04:00:35;;;;;;;;;;;;;;;;;;5101030;28;19966;-83
2022/04/10 04:03:05;;;;;;;;;;;;;;;;;;5100260;28;20133;-84
2022/04/10 04:05:34;;;;;;;;;;;;;;;;;;5103171;28;19916;-83
2022/04/10 04:08:01;;;;;;;;;;;;;;;;;;5085171;28;19916;-83
2022/04/10 04:10:29;;;;;;;;;;;;;;;;;;5101832;28;20356;-83
2022/04/10 04:12:55;;;;;;;;;;;;;;;;;;5084862;28;19926;-83
2022/04/10 04:15:21;;;;;;;;;;;;;;;;;;5101827;28;19947;-83
2022/04/10 04:17:47;;;;;;;;;;;;;;;;;;5105418;28;20011;-84
2022/04/10 04:20:13;;;;;;;;;;;;;;;;;;5100878;28;19952;-86
2022/04/10 04:22:39;;;;;;;;;;;;;;;;;;5081962;28;19950;-83
2022/04/10 04:25:06;;;;;;;;;;;;;;;;;;5083143;28;19940;-84
2022/04/10 04:27:32;;;;;;;;;;;;;;;;;;5081230;28;20409;-83
2022/04/10 04:29:58;;;;;;;;;;;;;;;;;;5081628;28;19921;-84
2022/04/10 04:32:23;;;;;;;;;;;;;;;;;;5080972;28;20374;-82
2022/04/10 04:34:49;;;;;;;;;;;;;;;;;;5081285;28;19922;-83
2022/04/10 04:37:15;;;;;;;;;;;;;;;;;;5081875;28;20347;-82
2022/04/10 04:39:41;;;;;;;;;;;;;;;;;;5080904;28;19924;-82
2022/04/10 04:42:07;;;;;;;;;;;;;;;;;;5079860;28;19917;-83
2022/04/10 04:44:33;;;;;;;;;;;;;;;;;;5079935;28;19917;-83
2022/04/10 04:46:59;;;;;;;;;;;;;;;;;;5079458;28;19916;-83
2022/04/10 04:49:27;;;;;;;;;;;;;;;;;;5094452;28;20271;-84
2022/04/10 04:51:53;;;;;;;;;;;;;;;;;;5079439;28;19970;-83
2022/04/10 04:54:19;;;;;;;;;;;;;;;;;;5079531;28;20396;-83
2022/04/10 04:56:45;;;;;;;;;;;;;;;;;;5080680;28;19920;-83
2022/04/10 04:59:12;;;;;;;;;;;;;;;;;;5079438;28;19916;-83
2022/04/10 05:01:41;;;;;;;;;;;;;;;;;;5062400;28;20373;-82
2022/04/10 05:04:07;;;;;;;;;;;;;;;;;;5078867;28;20357;-84
2022/04/10 05:06:33;;;;;;;;;;;;;;;;;;5080486;28;19924;-82
2022/04/10 05:08:59;;;;;;;;;;;;;;;;;;5064653;28;19917;-83
2022/04/10 05:11:25;;;;;;;;;;;;;;;;;;5081287;28;19928;-83
2022/04/10 05:13:51;;;;;;;;;;;;;;;;;;5087345;28;19927;-83
2022/04/10 05:16:16;;;;;;;;;;;;;;;;;;5101466;28;19916;-83
2022/04/10 05:18:47;;;;;;;;;;;;;;;;;;5100991;28;19915;-83
2022/04/10 05:21:13;;;;;;;;;;;;;;;;;;5084238;28;19927;-83
2022/04/10 05:23:39;;;;;;;;;;;;;;;;;;5099883;28;19916;-82
2022/04/10 05:26:10;;;;;;;;;;;;;;;;;;5100046;28;19916;-83
2022/04/10 05:28:38;;;;;;;;;;;;;;;;;;5104736;28;19916;-84
2022/04/10 05:31:04;;;;;;;;;;;;;;;;;;5103826;28;19927;-83
2022/04/10 05:33:35;;;;;;;;;;;;;;;;;;5102595;28;19938;-85
2022/04/10 05:36:01;;;;;;;;;;;;;;;;;;5081983;28;19917;-84
2022/04/10 05:38:28;;;;;;;;;;;;;;;;;;5080746;28;19916;-83
2022/04/10 05:40:54;;;;;;;;;;;;;;;;;;5080532;28;19916;-84
2022/04/10 05:43:22;;;;;;;;;;;;;;;;;;5080226;28;19923;-84
2022/04/10 05:45:51;;;;;;;;;;;;;;;;;;5080030;28;19925;-83
2022/04/10 05:48:17;;;;;;;;;;;;;;;;;;5079773;28;19916;-83
2022/04/10 05:50:43;;;;;;;;;;;;;;;;;;5062340;28;19928;-84
2022/04/10 05:53:08;;;;;;;;;;;;;;;;;;5079469;28;19931;-83
2022/04/10 05:55:37;;;;;;;;;;;;;;;;;;5078436;28;19930;-83
2022/04/10 05:58:08;;;;;;;;;;;;;;;;;;5063931;28;19954;-83
2022/04/10 06:00:35;;;;;;;;;;;;;;;;;;5083002;28;20382;-83
2022/04/10 06:03:16;;;;;;;;;;;;;;;;;;5080542;28;19927;-83
2022/04/10 06:05:45;;;;;;;;;;;;;;;;;;5080054;28;20011;-83
2022/04/10 06:08:18;;;;;;;;;;;;;;;;;;5079422;28;19908;-83
2022/04/10 06:10:43;;;;;;;;;;;;;;;;;;5080938;28;19970;-82
2022/04/10 06:13:11;;;;;;;;;;;;;;;;;;5078711;28;19924;-83
2022/04/10 06:15:44;;;;;;;;;;;;;;;;;;5074057;28;19923;-83
2022/04/10 06:18:10;;;;;;;;;;;;;;;;;;5099006;28;20334;-83
2022/04/10 06:20:37;;;;;;;;;;;;;;;;;;5100515;28;19923;-84
2022/04/10 06:23:03;;;;;;;;;;;;;;;;;;5085116;28;19916;-84
2022/04/10 06:25:29;;;;;;;;;;;;;;;;;;5101778;28;19922;-85
2022/04/10 06:27:56;;;;;;;;;;;;;;;;;;5101943;28;19965;-84
2022/04/10 06:30:24;;;;;;;;;;;;;;;;;;5097592;28;19921;-83
2022/04/10 06:32:54;;;;;;;;;;;;;;;;;;5097251;28;19916;-83
2022/04/10 06:35:20;;;;;;;;;;;;;;;;;;5097021;28;19919;-83
2022/04/10 06:37:49;;;;;;;;;;;;;;;;;;5097447;28;19916;-82
2022/04/10 06:40:16;;;;;;;;;;;;;;;;;;5079964;28;19943;-83
2022/04/10 06:42:43;;;;;;;;;;;;;;;;;;5096962;28;19983;-83
2022/04/10 06:45:28;;;;;;;;;;;;;;;;;;5112388;28;19969;-86
2022/04/10 06:47:53;;;;;;;;;;;;;;;;;;5125472;28;19920;-85
2022/04/10 06:50:19;;;;;;;;;;;;;;;;;;5117575;28;19920;-79
2022/04/10 06:52:45;;;;;;;;;;;;;;;;;;5098658;28;19979;-79
2022/04/10 06:55:11;;;;;;;;;;;;;;;;;;5097880;28;19943;-79
2022/04/10 06:57:37;;;;;;;;;;;;;;;;;;5099897;28;19920;-81
2022/04/10 07:00:02;;;;;;;;;;;;;;;;;;5111412;28;19923;-82
2022/04/10 07:02:32;;;;;;;;;;;;;;;;;;5107810;28;19923;-82
2022/04/10 07:04:57;;;;;;;;;;;;;;;;;;5105156;28;19916;-82
2022/04/10 07:07:24;;;;;;;;;;;;;;;;;;5086748;28;19916;-82
2022/04/10 07:09:50;;;;;;;;;;;;;;;;;;5101796;28;20448;-83
2022/04/10 07:12:15;;;;;;;;;;;;;;;;;;5099569;28;19944;-78
2022/04/10 07:14:46;;;;;;;;;;;;;;;;;;5096668;28;19968;-78
2022/04/10 07:17:12;;;;;;;;;;;;;;;;;;5079454;28;19916;-82
2022/04/10 07:19:38;;;;;;;;;;;;;;;;;;5082630;28;19944;-82
2022/04/10 07:24:49;;;;;;;;;;;;;;;;;;5076561;28;19927;-82
2022/04/10 07:27:14;;;;;;;;;;;;;;;;;;5078518;28;20278;-81
2022/04/10 07:29:51;;;;;;;;;;;;;;;;;;5076742;28;19916;-82
2022/04/10 07:32:18;;;;;;;;;;;;;;;;;;5075216;28;19916;-79
2022/04/10 07:34:52;;;;;;;;;;;;;;;;;;5076806;28;19962;-78
2022/04/10 07:37:34;;;;;;;;;;;;;;;;;;5074427;28;19916;-78
2022/04/10 07:40:02;;;;;;;;;;;;;;;;;;5075235;28;19917;-78
2022/04/10 07:42:29;;;;;;;;;;;;;;;;;;5079254;28;19917;-81
2022/04/10 07:44:56;;;;;;;;;;;;;;;;;;5086053;28;20515;-81
2022/04/10 07:47:25;;;;;;;;;;;;;;;;;;5063165;28;19924;-80
2022/04/10 07:49:51;;;;;;;;;;;;;;;;;;5080088;28;19962;-80
2022/04/10 07:52:20;;;;;;;;;;;;;;;;;;5090540;28;19943;-80
2022/04/10 07:55:01;;;;;;;;;;;;;;;;;;5080025;28;20422;-81
2022/04/10 07:57:29;;;;;;;;;;;;;;;;;;5078510;28;19917;-80
2022/04/10 07:59:56;;;;;;;;;;;;;;;;;;5078059;28;19916;-81
2022/04/10 08:02:38;;;;;;;;;;;;;;;;;;5076310;28;20345;-80
2022/04/10 08:05:13;;;;;;;;;;;;;;;;;;5075419;28;20306;-80
2022/04/10 08:07:57;;;;;;;;;;;;;;;;;;5075468;28;20440;-80
2022/04/10 08:10:22;;;;;;;;;;;;;;;;;;5074049;28;19921;-80
2022/04/10 08:12:48;;;;;;;;;;;;;;;;;;5077967;28;20389;-81
2022/04/10 08:15:13;;;;;;;;;;;;;;;;;;5076883;28;20393;-80
2022/04/10 08:17:39;;;;;;;;;;;;;;;;;;5077468;28;19924;-81
2022/04/10 08:20:05;;;;;;;;;;;;;;;;;;5077975;28;19973;-80
2022/04/10 08:22:32;;;;;;;;;;;;;;;;;;5098499;28;20015;-80
2022/04/10 08:25:06;;;;;;;;;;;;;;;;;;5097360;28;19959;-81
2022/04/10 08:27:31;;;;;;;;;;;;;;;;;;5100590;28;20006;-80
2022/04/10 08:29:57;;;;;;;;;;;;;;;;;;5100530;28;20405;-81
2022/04/10 08:32:22;;;;;;;;;;;;;;;;;;5106932;28;19979;-81
2022/04/10 08:34:48;;;;;;;;;;;;;;;;;;5107141;28;19916;-81
2022/04/10 08:37:13;;;;;;;;;;;;;;;;;;5106068;28;19916;-81
2022/04/10 08:39:39;;;;;;;;;;;;;;;;;;5106123;28;19916;-81
2022/04/10 08:42:05;;;;;;;;;;;;;;;;;;5107006;28;19923;-80
2022/04/10 08:44:31;;;;;;;;;;;;;;;;;;5106801;28;19916;-81
2022/04/10 08:46:57;;;;;;;;;;;;;;;;;;5106652;28;19927;-81
2022/04/10 08:49:26;;;;;;;;;;;;;;;;;;5106319;28;19930;-81
2022/04/10 08:51:52;;;;;;;;;;;;;;;;;;5109559;28;19927;-81
2022/04/10 08:54:21;;;;;;;;;;;;;;;;;;5109760;28;19920;-81
2022/04/10 08:56:46;;;;;;;;;;;;;;;;;;5108650;28;20278;-80
2022/04/10 08:59:12;;;;;;;;;;;;;;;;;;5108168;28;19973;-81
2022/04/10 09:01:37;;;;;;;;;;;;;;;;;;5107607;28;19923;-81
2022/04/10 09:04:03;;;;;;;;;;;;;;;;;;5107108;28;20464;-80
2022/04/10 09:06:28;;;;;;;;;;;;;;;;;;5104795;28;20432;-81
2022/04/10 09:09:09;;;;;;;;;;;;;;;;;;5107039;28;19916;-81
2022/04/10 09:11:34;;;;;;;;;;;;;;;;;;5105992;28;19921;-81
2022/04/10 09:14:00;;;;;;;;;;;;;;;;;;5105795;28;19916;-81
2022/04/10 09:16:25;;;;;;;;;;;;;;;;;;5106570;28;19987;-81
2022/04/10 09:18:54;;;;;;;;;;;;;;;;;;5106629;28;19919;-81
2022/04/10 09:21:21;;;;;;;;;;;;;;;;;;5106586;28;19916;-81
2022/04/10 09:23:53;;;;;;;;;;;;;;;;;;5106400;28;19920;-80
2022/04/10 09:26:18;;;;;;;;;;;;;;;;;;5108588;28;20042;-81
2022/04/10 09:28:44;;;;;;;;;;;;;;;;;;5106888;28;19912;-81
2022/04/10 09:31:29;;;;;;;;;;;;;;;;;;5106766;28;19927;-81
2022/04/10 09:33:56;;;;;;;;;;;;;;;;;;5105763;28;19923;-81
2022/04/10 09:36:28;;;;;;;;;;;;;;;;;;5105299;28;20015;-81
2022/04/10 09:38:53;;;;;;;;;;;;;;;;;;5104648;28;19916;-80
2022/04/10 09:41:20;;;;;;;;;;;;;;;;;;5104377;28;20397;-78
2022/04/10 09:43:45;;;;;;;;;;;;;;;;;;5105917;28;19957;-78
2022/04/10 09:46:13;;;;;;;;;;;;;;;;;;5099764;28;19916;-80
2022/04/10 09:48:39;;;;;;;;;;;;;;;;;;5092340;28;19916;-80
2022/04/10 09:51:05;;;;;;;;;;;;;;;;;;5103755;28;19943;-81
2022/04/10 09:53:32;;;;;;;;;;;;;;;;;;5104579;28;19915;-78
2022/04/10 09:56:04;;;;;;;;;;;;;;;;;;5102496;28;19920;-81
2022/04/10 09:58:30;;;;;;;;;;;;;;;;;;5104199;28;19916;-78
2022/04/10 10:00:56;;;;;;;;;;;;;;;;;;5102283;28;20393;-78
2022/04/10 10:03:22;;;;;;;;;;;;;;;;;;5112451;28;19916;-81
2022/04/10 10:05:52;;;;;;;;;;;;;;;;;;5110799;28;19916;-81
2022/04/10 10:08:18;;;;;;;;;;;;;;;;;;5108537;28;19995;-81
2022/04/10 10:10:44;;;;;;;;;;;;;;;;;;5107807;28;20302;-80
2022/04/10 10:13:10;;;;;;;;;;;;;;;;;;5105175;28;20374;-80
2022/04/10 10:15:35;;;;;;;;;;;;;;;;;;5100409;28;19927;-80
2022/04/10 10:18:02;;;;;;;;;;;;;;;;;;5082978;28;19916;-80
2022/04/10 10:20:28;;;;;;;;;;;;;;;;;;5083849;28;19916;-79
2022/04/10 10:22:53;;;;;;;;;;;;;;;;;;5079451;28;19923;-79
2022/04/10 10:25:24;;;;;;;;;;;;;;;;;;5077497;28;20362;-79
2022/04/10 10:28:14;;;;;;;;;;;;;;;;;;5081272;28;19923;-80
2022/04/10 10:30:47;;;;;;;;;;;;;;;;;;5076974;28;19924;-80
2022/04/10 10:33:17;;;;;;;;;;;;;;;;;;5078660;28;19977;-80
2022/04/10 10:35:44;;;;;;;;;;;;;;;;;;5079348;28;19916;-81
2022/04/10 10:38:18;;;;;;;;;;;;;;;;;;5078663;28;19916;-82
2022/04/10 10:40:44;;;;;;;;;;;;;;;;;;5081788;28;20003;-82
2022/04/10 10:43:09;;;;;;;;;;;;;;;;;;5080060;28;19948;-80
2022/04/10 10:45:36;;;;;;;;;;;;;;;;;;5080114;28;19916;-83
2022/04/10 10:48:20;;;;;;;;;;;;;;;;;;5068190;28;20010;-83
2022/04/10 10:50:45;;;;;;;;;;;;;;;;;;5087449;28;19947;-80
2022/04/10 10:53:11;;;;;;;;;;;;;;;;;;5086749;28;19920;-80
2022/04/10 10:55:44;;;;;;;;;;;;;;;;;;5082751;28;20398;-81
2022/04/10 10:58:10;;;;;;;;;;;;;;;;;;5079778;28;19916;-82
2022/04/10 11:00:36;;;;;;;;;;;;;;;;;;5078548;28;19916;-81
2022/04/10 11:03:07;;;;;;;;;;;;;;;;;;5078737;28;19916;-82
2022/04/10 11:05:35;;;;;;;;;;;;;;;;;;5080340;28;19916;-82
2022/04/10 11:08:08;;;;;;;;;;;;;;;;;;5079909;28;19916;-82
2022/04/10 11:10:37;;;;;;;;;;;;;;;;;;5081275;28;19928;-82
2022/04/10 11:13:06;;;;;;;;;;;;;;;;;;5082018;28;20014;-82
2022/04/10 11:15:48;;;;;;;;;;;;;;;;;;5095621;28;19923;-82
2022/04/10 11:18:23;;;;;;;;;;;;;;;;;;5100676;28;20270;-82
2022/04/10 11:20:55;;;;;;;;;;;;;;;;;;5098722;28;19917;-81
2022/04/10 11:23:20;;;;;;;;;;;;;;;;;;5099710;28;19916;-82
2022/04/10 11:25:52;;;;;;;;;;;;;;;;;;5098029;28;19923;-81
2022/04/10 11:28:17;;;;;;;;;;;;;;;;;;5099614;28;19916;-81
2022/04/10 11:30:45;;;;;;;;;;;;;;;;;;5097218;28;19924;-81
2022/04/10 11:33:11;;;;;;;;;;;;;;;;;;5099145;28;19924;-81
2022/04/10 11:35:37;;;;;;;;;;;;;;;;;;5109587;28;19916;-82
2022/04/10 11:38:12;;;;;;;;;;;;;;;;;;5106349;28;19916;-81
2022/04/10 11:40:39;;;;;;;;;;;;;;;;;;5105738;28;19916;-81
2022/04/10 11:43:07;;;;;;;;;;;;;;;;;;5104047;28;19916;-82
2022/04/10 11:45:33;;;;;;;;;;;;;;;;;;5118962;28;19919;-82
2022/04/10 11:47:58;;;;;;;;;;;;;;;;;;5102453;28;20350;-82
2022/04/10 11:50:27;;;;;;;;;;;;;;;;;;5101840;28;19921;-82
2022/04/10 11:52:57;;;;;;;;;;;;;;;;;;5104040;28;19922;-82
2022/04/10 11:55:27;;;;;;;;;;;;;;;;;;5103929;28;19959;-82
2022/04/10 11:57:53;;;;;;;;;;;;;;;;;;5103281;28;19916;-82
2022/04/10 12:00:18;;;;;;;;;;;;;;;;;;5104951;28;19916;-82
2022/04/10 12:02:43;;;;;;;;;;;;;;;;;;5103583;28;20004;-81
2022/04/10 12:05:09;;;;;;;;;;;;;;;;;;5105193;28;19916;-82
2022/04/10 12:07:36;;;;;;;;;;;;;;;;;;5104285;28;19915;-82
2022/04/10 12:10:01;;;;;;;;;;;;;;;;;;5104557;28;20331;-82
2022/04/10 12:12:35;;;;;;;;;;;;;;;;;;5103159;28;19979;-82
2022/04/10 12:15:01;;;;;;;;;;;;;;;;;;5103172;28;19979;-80
2022/04/10 12:17:26;;;;;;;;;;;;;;;;;;5104314;28;19951;-82
2022/04/10 12:19:55;;;;;;;;;;;;;;;;;;5102147;28;20500;-82
2022/04/10 12:22:22;;;;;;;;;;;;;;;;;;5104412;28;19916;-79
2022/04/10 12:24:48;;;;;;;;;;;;;;;;;;5103710;28;19951;-81
2022/04/10 12:27:13;;;;;;;;;;;;;;;;;;5106169;28;19923;-81
2022/04/10 12:29:39;;;;;;;;;;;;;;;;;;5106784;28;19919;-82
2022/04/10 12:32:04;;;;;;;;;;;;;;;;;;5106819;28;20282;-82
2022/04/10 12:34:33;;;;;;;;;;;;;;;;;;5109982;28;19923;-82
2022/04/10 12:37:05;;;;;;;;;;;;;;;;;;5109198;28;19916;-82
2022/04/10 12:39:31;;;;;;;;;;;;;;;;;;5109188;28;19916;-82
2022/04/10 12:41:57;;;;;;;;;;;;;;;;;;5110106;28;20356;-81
2022/04/10 12:44:25;;;;;;;;;;;;;;;;;;5108977;28;19916;-81
2022/04/10 12:46:51;;;;;;;;;;;;;;;;;;5106523;28;19973;-81
2022/04/10 12:49:17;;;;;;;;;;;;;;;;;;5103521;28;19920;-81
2022/04/10 12:51:46;;;;;;;;;;;;;;;;;;5103038;28;19920;-79
2022/04/10 12:54:11;;;;;;;;;;;;;;;;;;5091180;28;19916;-82
2022/04/10 12:56:40;;;;;;;;;;;;;;;;;;5107059;28;19946;-81
2022/04/10 12:59:05;;;;;;;;;;;;;;;;;;5102505;28;20010;-81
2022/04/10 13:01:39;;;;;;;;;;;;;;;;;;5094777;28;19952;-81
2022/04/10 13:04:05;;;;;;;;;;;;;;;;;;5098092;28;20390;-81
2022/04/10 13:06:51;;;;;;;;;;;;;;;;;;5097693;28;19920;-81
2022/04/10 13:09:16;;;;;;;;;;;;;;;;;;5100997;28;19949;-82
2022/04/10 13:11:42;;;;;;;;;;;;;;;;;;5100162;28;19920;-81
2022/04/10 13:14:10;;;;;;;;;;;;;;;;;;5097808;28;19916;-81
2022/04/10 13:16:36;;;;;;;;;;;;;;;;;;5096142;28;20019;-81
2022/04/10 13:19:02;;;;;;;;;;;;;;;;;;5103722;28;19947;-81
2022/04/10 13:21:28;;;;;;;;;;;;;;;;;;5096902;28;19975;-82
2022/04/10 13:23:53;;;;;;;;;;;;;;;;;;5094088;28;20290;-81
2022/04/10 13:26:25;;;;;;;;;;;;;;;;;;5096691;28;19937;-82
2022/04/10 13:28:50;;;;;;;;;;;;;;;;;;5092030;28;19917;-82
2022/04/10 13:31:16;;;;;;;;;;;;;;;;;;5089878;28;19924;-82
2022/04/10 13:33:42;;;;;;;;;;;;;;;;;;5089506;28;19939;-82
2022/04/10 13:36:07;;;;;;;;;;;;;;;;;;5089230;28;19916;-82
2022/04/10 13:38:32;;;;;;;;;;;;;;;;;;5087833;28;19975;-82
2022/04/10 13:40:58;;;;;;;;;;;;;;;;;;5088941;28;20417;-82
2022/04/10 13:43:24;;;;;;;;;;;;;;;;;;5088002;28;20340;-82
2022/04/10 13:45:50;;;;;;;;;;;;;;;;;;5087456;28;19916;-82
2022/04/10 13:48:15;;;;;;;;;;;;;;;;;;5087784;28;19916;-82
2022/04/10 13:50:40;;;;;;;;;;;;;;;;;;5092256;28;19964;-82
2022/04/10 13:53:06;;;;;;;;;;;;;;;;;;5107819;28;19924;-82
2022/04/10 13:55:31;;;;;;;;;;;;;;;;;;5106333;28;19920;-82
2022/04/10 13:57:56;;;;;;;;;;;;;;;;;;5107548;28;20297;-82
2022/04/10 14:00:22;;;;;;;;;;;;;;;;;;5105739;28;19959;-82
2022/04/10 14:02:47;;;;;;;;;;;;;;;;;;5088468;28;19930;-82
2022/04/10 14:05:12;;;;;;;;;;;;;;;;;;5104066;28;19916;-81
2022/04/10 14:07:37;;;;;;;;;;;;;;;;;;5106410;28;19916;-83
2022/04/10 14:10:03;;;;;;;;;;;;;;;;;;5106389;28;20474;-82
2022/04/10 14:12:28;;;;;;;;;;;;;;;;;;5106096;28;19938;-82
2022/04/10 14:14:54;;;;;;;;;;;;;;;;;;5099891;28;19913;-81
2022/04/10 14:17:20;;;;;;;;;;;;;;;;;;5082174;28;20366;-79
2022/04/10 14:19:45;;;;;;;;;;;;;;;;;;5078457;28;19961;-79
2022/04/10 14:22:10;;;;;;;;;;;;;;;;;;5078663;28;19917;-81
2022/04/10 14:24:36;;;;;;;;;;;;;;;;;;5082124;28;19921;-82
2022/04/10 14:27:01;;;;;;;;;;;;;;;;;;5089877;28;19916;-82
2022/04/10 14:29:27;;;;;;;;;;;;;;;;;;5106220;28;19927;-83
2022/04/10 14:31:53;;;;;;;;;;;;;;;;;;5088236;28;19924;-82
2022/04/10 14:34:19;;;;;;;;;;;;;;;;;;5106110;28;19916;-82
2022/04/10 14:36:46;;;;;;;;;;;;;;;;;;5103242;28;20010;-82
2022/04/10 14:39:12;;;;;;;;;;;;;;;;;;5110997;28;19938;-82
2022/04/10 14:41:37;;;;;;;;;;;;;;;;;;5111289;28;19916;-83
2022/04/10 14:44:02;;;;;;;;;;;;;;;;;;5108813;28;20381;-82
2022/04/10 14:46:28;;;;;;;;;;;;;;;;;;5107484;28;19991;-82
2022/04/10 14:48:54;;;;;;;;;;;;;;;;;;5108326;28;19916;-82
2022/04/10 14:51:20;;;;;;;;;;;;;;;;;;5107590;28;19927;-82
2022/04/10 14:53:45;;;;;;;;;;;;;;;;;;5106158;28;20014;-82
2022/04/10 14:56:11;;;;;;;;;;;;;;;;;;5105643;28;19920;-82
2022/04/10 14:58:36;;;;;;;;;;;;;;;;;;5105640;28;20332;-82
2022/04/10 15:01:02;;;;;;;;;;;;;;;;;;5102116;28;19923;-82
2022/04/10 15:03:28;;;;;;;;;;;;;;;;;;5102346;28;20403;-82
2022/04/10 15:05:53;;;;;;;;;;;;;;;;;;5103631;28;20015;-83
2022/04/10 15:08:18;;;;;;;;;;;;;;;;;;5103048;28;20239;-82
2022/04/10 15:10:47;;;;;;;;;;;;;;;;;;5103737;28;19991;-83
2022/04/10 15:13:13;;;;;;;;;;;;;;;;;;5094303;28;19916;-83
2022/04/10 15:15:38;;;;;;;;;;;;;;;;;;5100811;28;19943;-81
2022/04/10 15:18:04;;;;;;;;;;;;;;;;;;5091775;28;20381;-83
2022/04/10 15:20:30;;;;;;;;;;;;;;;;;;5107817;28;19912;-83
2022/04/10 15:22:55;;;;;;;;;;;;;;;;;;5109252;28;19922;-83
2022/04/10 15:25:20;;;;;;;;;;;;;;;;;;5107796;28;19920;-82
2022/04/10 15:27:46;;;;;;;;;;;;;;;;;;5108129;28;20004;-83
2022/04/10 15:30:12;;;;;;;;;;;;;;;;;;5087964;28;19916;-83
2022/04/10 15:32:40;;;;;;;;;;;;;;;;;;5104785;28;19924;-83
2022/04/10 15:35:06;;;;;;;;;;;;;;;;;;5105298;28;20321;-78
2022/04/10 15:37:34;;;;;;;;;;;;;;;;;;5106686;28;19923;-78
2022/04/10 15:40:00;;;;;;;;;;;;;;;;;;5103783;28;20293;-79
2022/04/10 15:42:26;;;;;;;;;;;;;;;;;;5106004;28;19916;-78
2022/04/10 15:44:52;;;;;;;;;;;;;;;;;;5104917;28;19916;-79
2022/04/10 15:47:17;;;;;;;;;;;;;;;;;;5105730;28;19920;-78
2022/04/10 15:49:42;;;;;;;;;;;;;;;;;;5105169;28;19956;-79
2022/04/10 15:52:08;;;;;;;;;;;;;;;;;;5105381;28;19920;-79
2022/04/10 15:54:34;;;;;;;;;;;;;;;;;;5104446;28;19916;-78
2022/04/10 15:57:00;;;;;;;;;;;;;;;;;;5102778;28;19927;-78
2022/04/10 15:59:25;;;;;;;;;;;;;;;;;;5106422;28;19920;-78
2022/04/10 16:01:50;;;;;;;;;;;;;;;;;;5108868;28;19952;-78
2022/04/10 16:04:16;;;;;;;;;;;;;;;;;;5108511;28;19927;-78
2022/04/10 16:06:41;;;;;;;;;;;;;;;;;;5108096;28;19924;-78
2022/04/10 16:09:06;;;;;;;;;;;;;;;;;;5108813;28;19920;-78
2022/04/10 16:11:31;;;;;;;;;;;;;;;;;;5116234;28;19949;-78
2022/04/10 16:13:57;;;;;;;;;;;;;;;;;;5124724;28;19991;-78
2022/04/10 16:16:22;;;;;;;;;;;;;;;;;;5131993;28;20265;-78
2022/04/10 16:18:48;;;;;;;;;;;;;;;;;;5131737;28;19979;-78
2022/04/10 16:21:13;;;;;;;;;;;;;;;;;;5121123;28;19955;-78
2022/04/10 16:23:38;;;;;;;;;;;;;;;;;;5109823;28;19916;-78
2022/04/10 16:26:04;;;;;;;;;;;;;;;;;;5109326;28;19937;-78
2022/04/10 16:31:14;;;;;;;;;;;;;;;;;;5102849;28;19920;-83
2022/04/10 16:34:17;;;;;;;;;;;;;;;;;;5102869;28;20259;-82
2022/04/10 16:36:25;;;;;;;;;;;;;;;;;;5103294;28;19916;-82
2022/04/10 16:38:50;;;;;;;;;;;;;;;;;;5096024;28;19915;-83
2022/04/10 16:41:15;;;;;;;;;;;;;;;;;;5098851;28;20361;-83
2022/04/10 16:43:41;;;;;;;;;;;;;;;;;;5093491;28;19916;-83
2022/04/10 16:46:06;;;;;;;;;;;;;;;;;;5081413;28;19920;-82
2022/04/10 16:48:32;;;;;;;;;;;;;;;;;;5088359;28;19917;-82
2022/04/10 16:50:58;;;;;;;;;;;;;;;;;;5086735;28;20340;-82